Time;durP1;ratioP1;P1;durP2;ratioP2;P2;SDS_P1;SDS_P2;PMS_P1;PMS_P2;Temp;Humidity;BMP_temperature;BMP_pressure;BME280_temperature;BME280_humidity;BME280_pressure;Samples;Min_cycle;Max_cycle;Signal;HPM_P1;HPM_P2
2021/06/30 00:02:25;;;;;;;21.30;19.60;;;22.70;99.90;;;;;;5065948;28;20466;-65
2021/06/30 00:04:56;;;;;;;21.80;20.00;;;22.70;99.90;;;;;;5075146;28;20459;-65
2021/06/30 00:07:23;;;;;;;20.17;18.47;;;22.70;99.90;;;;;;5075464;28;20550;-65
2021/06/30 00:09:50;;;;;;;23.03;21.17;;;22.70;99.90;;;;;;5074742;28;20477;-65
2021/06/30 00:12:17;;;;;;;20.57;18.87;;;22.70;99.90;;;;;;5075264;28;20522;-65
2021/06/30 00:14:46;;;;;;;21.70;19.97;;;22.70;99.90;;;;;;5074737;28;20477;-65
2021/06/30 00:17:14;;;;;;;21.03;19.23;;;22.70;99.90;;;;;;5074181;28;20469;-65
2021/06/30 00:19:41;;;;;;;20.67;19.07;;;22.60;99.90;;;;;;5071438;28;20975;-66
2021/06/30 00:22:08;;;;;;;21.00;19.30;;;22.70;99.90;;;;;;5072278;28;20968;-66
2021/06/30 00:24:35;;;;;;;22.77;20.47;;;22.60;99.90;;;;;;5072872;28;20473;-66
2021/06/30 00:27:02;;;;;;;23.80;21.73;;;22.60;99.90;;;;;;5072842;28;20468;-65
2021/06/30 00:29:28;;;;;;;26.33;23.90;;;22.60;99.90;;;;;;5071896;28;20470;-65
2021/06/30 00:31:57;;;;;;;20.70;19.00;;;22.60;99.90;;;;;;5072425;28;20466;-65
2021/06/30 00:34:24;;;;;;;24.70;22.70;;;22.60;99.90;;;;;;5072773;28;20466;-65
2021/06/30 00:36:51;;;;;;;21.87;20.07;;;22.70;99.90;;;;;;5072323;28;20474;-65
2021/06/30 00:39:20;;;;;;;25.93;23.63;;;22.70;99.90;;;;;;5070964;28;20782;-65
2021/06/30 00:41:47;;;;;;;22.87;20.97;;;22.70;99.90;;;;;;5072258;28;20960;-65
2021/06/30 00:44:14;;;;;;;24.00;22.00;;;22.70;99.90;;;;;;5072484;28;20474;-66
2021/06/30 00:46:42;;;;;;;21.53;19.83;;;22.70;99.90;;;;;;5071489;28;20471;-65
2021/06/30 00:49:11;;;;;;;21.67;19.97;;;22.70;99.90;;;;;;5074465;28;20804;-65
2021/06/30 00:51:38;;;;;;;21.73;20.03;;;22.70;99.90;;;;;;5074641;28;20532;-65
2021/06/30 00:54:08;;;;;;;23.67;21.67;;;22.70;99.90;;;;;;5070692;28;20447;-64
2021/06/30 00:56:35;;;;;;;24.93;22.80;;;22.70;99.90;;;;;;5071506;28;20477;-65
2021/06/30 00:59:03;;;;;;;21.53;19.63;;;22.70;99.90;;;;;;5073729;28;20466;-65
2021/06/30 01:01:30;;;;;;;23.40;21.60;;;22.80;99.90;;;;;;5074301;28;20463;-65
2021/06/30 01:03:57;;;;;;;21.60;19.77;;;22.80;99.90;;;;;;5070495;28;20466;-65
2021/06/30 01:06:26;;;;;;;20.30;18.67;;;22.80;99.90;;;;;;5074590;28;20798;-65
2021/06/30 01:08:53;;;;;;;23.90;21.80;;;22.80;99.90;;;;;;5073780;28;20474;-65
2021/06/30 01:11:20;;;;;;;22.97;21.17;;;22.80;99.90;;;;;;5074312;28;20472;-65
2021/06/30 01:13:47;;;;;;;25.37;23.07;;;22.80;99.90;;;;;;5073865;28;20820;-65
2021/06/30 01:16:15;;;;;;;22.93;21.13;;;22.80;99.90;;;;;;5074268;28;20454;-65
2021/06/30 01:18:42;;;;;;;21.63;19.93;;;22.70;99.90;;;;;;5073937;28;20481;-65
2021/06/30 01:21:11;;;;;;;21.03;19.37;;;22.70;99.90;;;;;;5073901;28;20451;-64
2021/06/30 01:23:41;;;;;;;23.27;21.43;;;22.70;99.90;;;;;;5073180;28;20972;-65
2021/06/30 01:26:08;;;;;;;23.90;21.77;;;22.70;99.90;;;;;;5073749;28;20462;-65
2021/06/30 01:28:36;;;;;;;20.43;18.73;;;22.70;99.90;;;;;;5073870;28;20556;-67
2021/06/30 01:31:05;;;;;;;19.47;17.97;;;22.70;99.90;;;;;;5073271;28;20793;-64
2021/06/30 01:33:33;;;;;;;21.23;19.30;;;22.70;99.90;;;;;;5073587;28;20477;-65
2021/06/30 01:36:00;;;;;;;21.00;19.17;;;22.80;99.90;;;;;;5073424;28;20470;-66
2021/06/30 01:38:28;;;;;;;22.47;20.63;;;22.80;99.90;;;;;;5073582;28;20964;-65
2021/06/30 01:40:58;;;;;;;19.50;18.00;;;22.80;99.90;;;;;;5073288;28;20474;-66
2021/06/30 01:43:25;;;;;;;21.03;19.40;;;22.80;99.90;;;;;;5073487;28;20805;-66
2021/06/30 01:45:54;;;;;;;23.00;21.10;;;22.80;99.90;;;;;;5073159;28;20961;-66
2021/06/30 01:48:22;;;;;;;25.20;23.00;;;22.80;99.90;;;;;;5073265;28;20546;-65
2021/06/30 01:50:50;;;;;;;23.97;21.80;;;22.80;99.90;;;;;;5073088;28;20549;-65
2021/06/30 01:53:18;;;;;;;24.00;21.93;;;22.70;99.90;;;;;;5072847;28;20976;-66
2021/06/30 01:55:45;;;;;;;22.90;21.10;;;22.70;99.90;;;;;;5069091;28;20467;-66
2021/06/30 01:58:17;;;;;;;22.23;20.50;;;22.70;99.90;;;;;;5072910;28;20563;-65
2021/06/30 02:00:44;;;;;;;25.80;23.67;;;22.70;99.90;;;;;;5073335;28;20889;-65
2021/06/30 02:03:11;;;;;;;25.97;23.90;;;22.70;99.90;;;;;;5072871;28;20463;-65
2021/06/30 02:05:41;;;;;;;24.43;22.30;;;22.70;99.90;;;;;;5072847;28;20470;-66
2021/06/30 02:08:08;;;;;;;26.03;23.93;;;22.70;99.90;;;;;;5072831;28;20527;-66
2021/06/30 02:10:35;;;;;;;27.47;25.10;;;22.60;99.90;;;;;;5073074;28;20984;-66
2021/06/30 02:13:02;;;;;;;24.10;22.10;;;22.60;99.90;;;;;;5072613;28;20953;-66
2021/06/30 02:15:32;;;;;;;25.73;23.63;;;22.60;99.90;;;;;;5072254;28;20474;-65
2021/06/30 02:18:00;;;;;;;25.03;22.93;;;22.60;99.90;;;;;;5072727;28;20963;-65
2021/06/30 02:20:28;;;;;;;25.90;23.70;;;22.60;99.90;;;;;;5072898;28;20462;-65
2021/06/30 02:22:57;;;;;;;28.93;26.37;;;22.60;99.90;;;;;;5072522;28;20462;-64
2021/06/30 02:25:25;;;;;;;27.30;25.00;;;22.60;99.90;;;;;;5072949;28;20948;-65
2021/06/30 02:27:53;;;;;;;30.40;27.60;;;22.60;99.90;;;;;;5072389;28;20470;-65
2021/06/30 02:30:24;;;;;;;28.30;25.80;;;22.60;99.90;;;;;;5072749;28;20462;-64
2021/06/30 02:32:52;;;;;;;24.63;22.53;;;22.60;99.90;;;;;;5072367;28;20813;-64
2021/06/30 02:35:22;;;;;;;24.77;22.87;;;22.60;99.90;;;;;;5072741;28;20470;-65
2021/06/30 02:37:50;;;;;;;25.77;23.57;;;22.60;99.90;;;;;;5072597;28;20513;-65
2021/06/30 02:40:19;;;;;;;23.50;21.27;;;22.60;99.90;;;;;;5065682;28;21230;-65
2021/06/30 02:42:47;;;;;;;23.97;21.87;;;22.70;99.90;;;;;;5065203;28;20471;-64
2021/06/30 02:45:16;;;;;;;24.60;22.50;;;22.60;99.90;;;;;;5072076;28;20481;-65
2021/06/30 02:47:45;;;;;;;24.80;22.80;;;22.70;99.90;;;;;;5059098;28;20844;-64
2021/06/30 02:50:15;;;;;;;22.37;20.63;;;22.70;99.90;;;;;;5072160;28;20474;-67
2021/06/30 02:52:44;;;;;;;23.60;21.70;;;22.70;99.90;;;;;;5072539;28;20536;-65
2021/06/30 02:55:13;;;;;;;22.40;20.60;;;22.60;99.90;;;;;;5072133;28;20834;-65
2021/06/30 02:57:40;;;;;;;24.80;22.77;;;22.70;99.90;;;;;;5072430;28;20474;-65
2021/06/30 03:00:09;;;;;;;23.10;21.20;;;22.70;99.90;;;;;;5072057;28;20466;-65
2021/06/30 03:02:36;;;;;;;23.63;21.83;;;22.60;99.90;;;;;;5072481;28;20463;-65
2021/06/30 03:05:04;;;;;;;23.07;21.17;;;22.60;99.90;;;;;;5071950;28;20948;-65
2021/06/30 03:07:32;;;;;;;26.77;24.53;;;22.60;99.90;;;;;;5072567;28;20470;-65
2021/06/30 03:09:59;;;;;;;26.23;23.77;;;22.60;99.90;;;;;;5072036;28;20466;-65
2021/06/30 03:12:26;;;;;;;23.53;21.53;;;22.60;99.90;;;;;;5072396;28;20839;-65
2021/06/30 03:14:53;;;;;;;24.70;22.60;;;22.60;99.90;;;;;;5072501;28;20470;-65
2021/06/30 03:17:20;;;;;;;27.27;24.87;;;22.60;99.90;;;;;;5072208;28;20458;-65
2021/06/30 03:19:47;;;;;;;22.97;20.87;;;22.60;99.90;;;;;;5070036;28;20476;-65
2021/06/30 03:22:14;;;;;;;23.60;21.70;;;22.60;99.90;;;;;;5075987;28;20528;-65
2021/06/30 03:24:42;;;;;;;21.20;19.40;;;22.60;99.90;;;;;;5076395;28;20462;-66
2021/06/30 03:27:09;;;;;;;20.77;19.17;;;22.60;99.90;;;;;;5075980;28;20953;-66
2021/06/30 03:29:36;;;;;;;24.20;22.20;;;22.60;99.90;;;;;;5076195;28;20477;-65
2021/06/30 03:32:04;;;;;;;22.37;20.63;;;22.60;99.90;;;;;;5075816;28;20816;-65
2021/06/30 03:34:30;;;;;;;22.37;20.27;;;22.60;99.90;;;;;;5076024;28;20545;-65
2021/06/30 03:36:57;;;;;;;23.27;21.33;;;22.60;99.90;;;;;;5075838;28;20466;-66
2021/06/30 03:39:24;;;;;;;21.50;19.90;;;22.60;99.90;;;;;;5075944;28;20967;-65
2021/06/30 03:41:53;;;;;;;20.83;19.13;;;22.60;99.90;;;;;;5076067;28;20473;-65
2021/06/30 03:44:19;;;;;;;19.20;17.70;;;22.50;99.90;;;;;;5075668;28;20473;-66
2021/06/30 03:46:47;;;;;;;20.60;18.97;;;22.60;99.90;;;;;;5075991;28;20462;-66
2021/06/30 03:49:13;;;;;;;21.87;20.10;;;22.50;99.90;;;;;;5075221;28;20486;-66
2021/06/30 03:51:40;;;;;;;19.87;18.33;;;22.50;99.90;;;;;;5075799;28;20823;-66
2021/06/30 03:54:09;;;;;;;22.67;20.87;;;22.50;99.90;;;;;;5071427;28;20471;-65
2021/06/30 03:56:36;;;;;;;20.10;18.50;;;22.50;99.90;;;;;;5062348;28;20470;-66
2021/06/30 03:59:04;;;;;;;20.87;19.07;;;22.50;99.90;;;;;;5075161;28;20477;-65
2021/06/30 04:01:32;;;;;;;20.47;18.77;;;22.40;99.90;;;;;;5075600;28;20477;-66
2021/06/30 04:04:00;;;;;;;19.97;18.37;;;22.40;99.90;;;;;;5075489;28;20813;-65
2021/06/30 04:06:27;;;;;;;21.43;19.83;;;22.40;99.90;;;;;;5075257;28;20464;-65
2021/06/30 04:08:54;;;;;;;21.60;19.90;;;22.40;99.90;;;;;;5075467;28;20478;-65
2021/06/30 04:11:21;;;;;;;21.03;19.43;;;22.40;99.90;;;;;;5074554;28;20504;-66
2021/06/30 04:13:48;;;;;;;23.83;21.77;;;22.40;99.90;;;;;;5074440;28;20470;-66
2021/06/30 04:16:16;;;;;;;22.50;20.60;;;22.40;99.90;;;;;;5073696;28;20815;-65
2021/06/30 04:18:43;;;;;;;22.27;20.57;;;22.40;99.90;;;;;;5074057;28;20474;-65
2021/06/30 04:21:10;;;;;;;22.70;20.90;;;22.40;99.90;;;;;;5073846;28;20470;-65
2021/06/30 04:23:37;;;;;;;20.83;19.13;;;22.40;99.90;;;;;;5074137;28;20470;-65
2021/06/30 04:26:05;;;;;;;20.73;19.00;;;22.40;99.90;;;;;;5073650;28;20477;-65
2021/06/30 04:28:32;;;;;;;21.87;20.17;;;22.40;99.90;;;;;;5073769;28;20988;-65
2021/06/30 04:30:59;;;;;;;21.33;19.53;;;22.30;99.90;;;;;;5073721;28;20534;-65
2021/06/30 04:33:30;;;;;;;19.73;18.17;;;22.30;99.90;;;;;;5073432;28;20470;-65
2021/06/30 04:35:57;;;;;;;21.20;19.40;;;22.30;99.90;;;;;;5073942;28;20474;-65
2021/06/30 04:38:25;;;;;;;21.73;20.03;;;22.30;99.90;;;;;;5073378;28;20475;-66
2021/06/30 04:40:52;;;;;;;20.40;18.70;;;22.30;99.90;;;;;;5073737;28;20474;-65
2021/06/30 04:43:19;;;;;;;21.63;19.70;;;22.30;99.90;;;;;;5073609;28;20812;-65
2021/06/30 04:45:46;;;;;;;22.83;20.93;;;22.20;99.90;;;;;;5073749;28;20519;-65
2021/06/30 04:48:13;;;;;;;25.10;22.77;;;22.20;99.90;;;;;;5072956;28;20470;-66
2021/06/30 04:50:42;;;;;;;23.90;21.90;;;22.20;99.90;;;;;;5073759;28;20982;-66
2021/06/30 04:53:09;;;;;;;25.43;23.30;;;22.20;99.90;;;;;;5072998;28;20462;-66
2021/06/30 04:55:36;;;;;;;21.20;19.30;;;22.10;99.90;;;;;;5070032;28;20459;-66
2021/06/30 04:58:03;;;;;;;23.90;21.57;;;22.10;99.90;;;;;;5071262;28;20504;-65
2021/06/30 05:00:30;;;;;;;23.17;21.13;;;22.20;99.90;;;;;;5072892;28;20471;-65
2021/06/30 05:02:57;;;;;;;23.80;21.57;;;22.20;99.90;;;;;;5073582;28;20478;-65
2021/06/30 05:05:24;;;;;;;23.13;21.13;;;22.20;99.90;;;;;;5059152;28;20474;-65
2021/06/30 05:07:52;;;;;;;21.87;20.07;;;22.10;99.90;;;;;;5073377;28;20485;-65
2021/06/30 05:10:19;;;;;;;20.70;18.90;;;22.10;99.90;;;;;;5072997;28;20481;-65
2021/06/30 05:12:46;;;;;;;21.73;19.83;;;22.10;99.90;;;;;;5028415;28;1297769;-65
2021/06/30 05:15:13;;;;;;;18.50;17.00;;;22.10;99.90;;;;;;5073668;28;20216;-65
2021/06/30 05:17:40;;;;;;;19.77;18.17;;;22.10;99.90;;;;;;5074262;28;20820;-65
2021/06/30 05:20:08;;;;;;;19.03;17.50;;;22.10;99.90;;;;;;5074137;28;20478;-65
2021/06/30 05:22:35;;;;;;;18.30;16.70;;;22.10;99.90;;;;;;5073939;28;20462;-66
2021/06/30 05:25:04;;;;;;;17.73;16.33;;;22.10;99.90;;;;;;5074000;28;20473;-66
2021/06/30 05:27:31;;;;;;;17.17;15.87;;;22.10;99.90;;;;;;5073400;28;20913;-66
2021/06/30 05:29:58;;;;;;;18.33;16.83;;;22.10;99.90;;;;;;5074020;28;20473;-65
2021/06/30 05:32:25;;;;;;;17.67;16.27;;;22.10;99.90;;;;;;5073382;28;20478;-65
2021/06/30 05:34:52;;;;;;;15.27;14.20;;;22.10;99.90;;;;;;5073823;28;20466;-66
2021/06/30 05:37:19;;;;;;;16.93;15.47;;;22.10;99.90;;;;;;5073144;28;20466;-65
2021/06/30 05:39:46;;;;;;;16.70;15.33;;;22.10;99.90;;;;;;5073620;28;20781;-65
2021/06/30 05:42:14;;;;;;;15.60;14.30;;;22.10;99.90;;;;;;5070230;28;20471;-65
2021/06/30 05:44:41;;;;;;;17.93;16.33;;;22.00;99.90;;;;;;5073772;28;20459;-65
2021/06/30 05:47:08;;;;;;;18.50;17.17;;;22.10;99.90;;;;;;5071753;28;20485;-65
2021/06/30 05:49:35;;;;;;;17.87;16.37;;;22.00;99.90;;;;;;5073013;28;20466;-65
2021/06/30 05:52:02;;;;;;;14.87;13.67;;;22.00;99.90;;;;;;5073605;28;20813;-65
2021/06/30 05:54:29;;;;;;;16.17;14.80;;;22.00;99.90;;;;;;5066765;28;20494;-65
2021/06/30 05:56:56;;;;;;;17.80;16.33;;;22.00;99.90;;;;;;5066449;28;20466;-65
2021/06/30 05:59:25;;;;;;;16.20;14.80;;;22.00;99.90;;;;;;5072903;28;20462;-65
2021/06/30 06:01:52;;;;;;;17.10;15.57;;;22.00;99.90;;;;;;5073515;28;20466;-65
2021/06/30 06:04:18;;;;;;;14.67;13.63;;;22.00;99.90;;;;;;5072803;28;20477;-65
2021/06/30 06:06:45;;;;;;;15.60;14.30;;;22.00;99.90;;;;;;5073546;28;20462;-65
2021/06/30 06:09:12;;;;;;;15.13;14.03;;;22.00;99.90;;;;;;5072914;28;20478;-65
2021/06/30 06:11:39;;;;;;;15.53;14.33;;;22.00;99.90;;;;;;5072661;28;20541;-65
2021/06/30 06:14:06;;;;;;;15.30;14.10;;;22.00;99.90;;;;;;5073181;28;20471;-65
2021/06/30 06:16:34;;;;;;;16.70;15.00;;;22.00;99.90;;;;;;5072684;28;20471;-65
2021/06/30 06:19:01;;;;;;;14.73;13.53;;;22.00;99.90;;;;;;5072763;28;20473;-65
2021/06/30 06:21:28;;;;;;;14.00;12.90;;;22.00;99.90;;;;;;5072769;28;20470;-66
2021/06/30 06:23:55;;;;;;;13.23;12.20;;;22.00;99.90;;;;;;5072872;28;20470;-65
2021/06/30 06:26:22;;;;;;;14.80;13.60;;;22.00;99.90;;;;;;5072606;28;20983;-65
2021/06/30 06:28:49;;;;;;;13.40;12.40;;;22.00;99.90;;;;;;5073004;28;21089;-65
2021/06/30 06:31:18;;;;;;;13.93;12.80;;;22.00;99.90;;;;;;5072346;28;20555;-65
2021/06/30 06:33:46;;;;;;;11.80;10.90;;;21.90;99.90;;;;;;5066579;28;20455;-66
2021/06/30 06:36:14;;;;;;;12.70;11.70;;;21.90;99.90;;;;;;5072902;28;20478;-65
2021/06/30 06:38:45;;;;;;;13.07;11.87;;;21.90;99.90;;;;;;5072363;28;20454;-65
2021/06/30 06:41:12;;;;;;;13.10;12.10;;;22.00;99.90;;;;;;5072612;28;20513;-65
2021/06/30 06:43:42;;;;;;;13.47;12.37;;;22.00;99.90;;;;;;5058841;28;20454;-65
2021/06/30 06:46:10;;;;;;;13.10;12.07;;;22.00;99.90;;;;;;5071901;28;20474;-66
2021/06/30 06:48:37;;;;;;;14.20;13.17;;;21.90;99.90;;;;;;5070764;28;20489;-65
2021/06/30 06:51:05;;;;;;;15.00;13.80;;;21.90;99.90;;;;;;5072565;28;20481;-65
2021/06/30 06:53:32;;;;;;;15.50;14.20;;;21.90;99.90;;;;;;5072103;28;20828;-65
2021/06/30 06:56:01;;;;;;;15.97;14.47;;;21.90;99.90;;;;;;5066060;28;20470;-67
2021/06/30 06:58:28;;;;;;;16.80;15.50;;;21.80;99.90;;;;;;5072108;28;20478;-66
2021/06/30 07:00:55;;;;;;;16.47;15.07;;;21.90;99.90;;;;;;5072385;28;20466;-67
2021/06/30 07:03:22;;;;;;;16.00;14.57;;;21.80;99.90;;;;;;5071947;28;20470;-66
2021/06/30 07:05:49;;;;;;;17.73;16.23;;;21.80;99.90;;;;;;5072647;28;20458;-67
2021/06/30 07:08:17;;;;;;;16.40;14.90;;;21.80;99.90;;;;;;5072415;28;20547;-66
2021/06/30 07:10:45;;;;;;;14.77;13.50;;;21.80;99.90;;;;;;5072161;28;20573;-66
2021/06/30 07:13:12;;;;;;;14.93;13.63;;;21.80;99.90;;;;;;5058504;28;20478;-66
2021/06/30 07:15:40;;;;;;;13.13;12.13;;;21.80;99.90;;;;;;5071821;28;20466;-64
2021/06/30 07:18:07;;;;;;;11.70;10.70;;;21.80;99.90;;;;;;5058985;28;20494;-64
2021/06/30 07:20:34;;;;;;;12.07;11.17;;;21.80;99.90;;;;;;5060214;28;20467;-65
2021/06/30 07:23:04;;;;;;;14.00;12.90;;;21.90;99.90;;;;;;5068725;28;20477;-65
2021/06/30 07:25:32;;;;;;;11.60;10.70;;;21.90;99.90;;;;;;5072014;28;20493;-65
2021/06/30 07:27:59;;;;;;;13.33;12.33;;;21.90;99.90;;;;;;5072134;28;20466;-66
2021/06/30 07:30:26;;;;;;;12.50;11.60;;;21.90;99.90;;;;;;5071728;28;20478;-65
2021/06/30 07:32:53;;;;;;;11.30;10.40;;;21.90;99.90;;;;;;5070695;28;20478;-65
2021/06/30 07:35:20;;;;;;;13.40;12.30;;;21.90;99.90;;;;;;5062765;28;20999;-65
2021/06/30 07:37:48;;;;;;;11.03;10.23;;;21.90;99.90;;;;;;5071542;28;21283;-65
2021/06/30 07:40:16;;;;;;;13.00;12.00;;;21.90;99.90;;;;;;5071986;28;20474;-65
2021/06/30 07:42:44;;;;;;;10.77;9.97;;;21.90;99.90;;;;;;5071834;28;20466;-65
2021/06/30 07:45:11;;;;;;;11.40;10.60;;;21.90;99.90;;;;;;5072118;28;20467;-65
2021/06/30 07:47:38;;;;;;;11.43;10.63;;;21.90;99.90;;;;;;5062456;28;20470;-65
2021/06/30 07:50:08;;;;;;;12.83;11.80;;;21.90;99.90;;;;;;5071836;28;20467;-64
2021/06/30 07:52:35;;;;;;;10.80;9.90;;;21.90;99.90;;;;;;5071270;28;20980;-65
2021/06/30 07:55:02;;;;;;;12.70;11.80;;;21.90;99.90;;;;;;5060736;28;20490;-64
2021/06/30 07:57:29;;;;;;;12.50;11.50;;;21.90;99.90;;;;;;5069760;28;20481;-66
2021/06/30 07:59:57;;;;;;;13.70;12.40;;;21.90;99.90;;;;;;5071980;28;20458;-65
2021/06/30 08:02:24;;;;;;;11.50;10.70;;;21.90;99.90;;;;;;5071916;28;20466;-65
2021/06/30 08:04:51;;;;;;;13.23;12.00;;;21.90;99.90;;;;;;5074251;28;20447;-65
2021/06/30 08:07:18;;;;;;;12.10;11.10;;;21.80;99.90;;;;;;5075376;28;20473;-65
2021/06/30 08:09:45;;;;;;;13.20;12.00;;;21.90;99.90;;;;;;5074180;28;20495;-65
2021/06/30 08:12:12;;;;;;;12.50;11.53;;;21.80;99.90;;;;;;5073746;28;20467;-65
2021/06/30 08:14:39;;;;;;;11.43;10.63;;;21.80;99.90;;;;;;5075257;28;20973;-65
2021/06/30 08:17:07;;;;;;;12.97;11.77;;;21.80;99.90;;;;;;5075282;28;20473;-65
2021/06/30 08:19:34;;;;;;;12.77;11.77;;;21.80;99.90;;;;;;5067255;28;20467;-64
2021/06/30 08:22:01;;;;;;;10.03;9.30;;;21.80;99.90;;;;;;5063333;28;20462;-65
2021/06/30 08:24:28;;;;;;;10.67;9.77;;;21.80;99.90;;;;;;5074763;28;20477;-65
2021/06/30 08:26:56;;;;;;;11.30;10.50;;;21.80;99.90;;;;;;5075337;28;20466;-64
2021/06/30 08:29:24;;;;;;;10.93;10.10;;;21.80;99.90;;;;;;5074953;28;20496;-64
2021/06/30 08:31:51;;;;;;;10.40;9.60;;;21.80;99.90;;;;;;5074867;28;20822;-65
2021/06/30 08:34:19;;;;;;;9.90;9.20;;;21.80;99.90;;;;;;5074953;28;20477;-65
2021/06/30 08:36:46;;;;;;;9.10;8.43;;;21.80;99.90;;;;;;5074748;28;20470;-64
2021/06/30 08:39:13;;;;;;;9.40;8.70;;;21.80;99.90;;;;;;5074698;28;20957;-65
2021/06/30 08:41:40;;;;;;;9.90;9.20;;;21.80;99.90;;;;;;5074510;28;20470;-65
2021/06/30 08:44:07;;;;;;;10.37;9.40;;;21.80;99.90;;;;;;5073804;28;20473;-65
2021/06/30 08:46:35;;;;;;;8.27;7.60;;;21.80;99.90;;;;;;5070262;28;20482;-66
2021/06/30 08:49:05;;;;;;;8.40;7.80;;;21.80;99.90;;;;;;5070890;28;20467;-66
2021/06/30 08:51:33;;;;;;;10.07;9.27;;;21.80;99.90;;;;;;5074454;28;20466;-66
2021/06/30 08:54:02;;;;;;;9.20;8.60;;;21.80;99.90;;;;;;5071725;28;20471;-65
2021/06/30 08:56:32;;;;;;;10.93;10.10;;;21.80;99.90;;;;;;5062635;28;20477;-65
2021/06/30 08:58:59;;;;;;;10.60;9.80;;;21.80;99.90;;;;;;5058623;28;21162;-65
2021/06/30 09:01:27;;;;;;;11.20;10.50;;;21.80;99.90;;;;;;5074599;28;20903;-64
2021/06/30 09:03:55;;;;;;;12.47;11.47;;;21.80;99.90;;;;;;5074057;28;22638;-65
2021/06/30 09:06:23;;;;;;;11.00;10.20;;;21.80;99.90;;;;;;5074159;28;20481;-65
2021/06/30 09:09:03;;;;;;;12.00;11.10;;;21.80;99.90;;;;;;5073788;28;20482;-65
2021/06/30 09:11:32;;;;;;;10.23;9.50;;;21.80;99.90;;;;;;5069919;28;20489;-65
2021/06/30 09:14:22;;;;;;;11.10;10.30;;;21.80;99.90;;;;;;5073932;28;20489;-66
2021/06/30 09:16:54;;;;;;;9.37;8.67;;;21.80;99.90;;;;;;5072876;28;20589;-65
2021/06/30 09:19:21;;;;;;;8.60;7.90;;;21.80;99.90;;;;;;5074257;28;20520;-66
2021/06/30 09:21:48;;;;;;;9.17;8.47;;;21.80;99.90;;;;;;5073634;28;20470;-66
2021/06/30 09:24:18;;;;;;;7.87;7.30;;;21.80;99.90;;;;;;5074136;28;20466;-65
2021/06/30 09:26:50;;;;;;;8.60;7.90;;;21.80;99.90;;;;;;5070469;28;20466;-65
2021/06/30 09:29:26;;;;;;;7.80;7.30;;;21.70;99.90;;;;;;5072782;28;20469;-65
2021/06/30 09:31:55;;;;;;;9.77;8.90;;;21.80;99.90;;;;;;5071528;28;20860;-65
2021/06/30 09:34:23;;;;;;;8.70;8.10;;;21.80;99.90;;;;;;5071948;28;20470;-66
2021/06/30 09:36:54;;;;;;;7.87;7.37;;;21.70;99.90;;;;;;5073342;28;20477;-66
2021/06/30 09:39:23;;;;;;;9.93;9.03;;;21.70;99.90;;;;;;5072243;28;20479;-65
2021/06/30 09:41:50;;;;;;;9.30;8.57;;;21.80;99.90;;;;;;5072825;28;20881;-65
2021/06/30 09:44:19;;;;;;;8.37;7.77;;;21.80;99.90;;;;;;5073750;28;20474;-66
2021/06/30 09:46:48;;;;;;;7.60;7.00;;;21.80;99.90;;;;;;5060129;28;20462;-66
2021/06/30 09:49:17;;;;;;;7.90;7.37;;;21.80;99.90;;;;;;5073571;28;20790;-66
2021/06/30 09:51:46;;;;;;;6.77;6.37;;;21.90;99.90;;;;;;5073306;28;20975;-66
2021/06/30 09:54:15;;;;;;;9.27;8.37;;;21.90;99.90;;;;;;5069025;28;20459;-66
2021/06/30 09:56:57;;;;;;;10.30;8.50;;;21.80;99.90;;;;;;5060172;28;20474;-66
2021/06/30 09:59:25;;;;;;;8.90;8.20;;;21.90;99.90;;;;;;5059899;28;20478;-66
2021/06/30 10:01:57;;;;;;;7.80;7.30;;;21.90;99.90;;;;;;5072374;28;20462;-66
2021/06/30 10:04:26;;;;;;;7.60;7.10;;;21.90;99.90;;;;;;5073077;28;20470;-66
2021/06/30 10:06:59;;;;;;;7.53;7.03;;;21.90;99.90;;;;;;5072738;28;20786;-66
2021/06/30 10:09:26;;;;;;;7.97;7.27;;;21.90;99.90;;;;;;5073449;28;20475;-66
2021/06/30 10:12:08;;;;;;;8.77;8.17;;;21.90;99.90;;;;;;5068452;28;20485;-66
2021/06/30 10:14:38;;;;;;;8.47;7.87;;;21.90;99.90;;;;;;5073380;28;20884;-66
2021/06/30 10:17:08;;;;;;;8.97;8.37;;;21.90;99.90;;;;;;5072870;28;21287;-66
2021/06/30 10:19:35;;;;;;;8.90;8.20;;;21.90;99.90;;;;;;5073105;28;20470;-66
2021/06/30 10:22:03;;;;;;;8.77;8.17;;;22.00;99.90;;;;;;5072683;28;20489;-66
2021/06/30 10:24:30;;;;;;;8.40;7.80;;;22.00;99.90;;;;;;5073074;28;20867;-66
2021/06/30 10:26:59;;;;;;;11.10;10.27;;;22.00;99.90;;;;;;5072299;28;20941;-66
2021/06/30 10:29:28;;;;;;;10.30;9.60;;;22.00;99.90;;;;;;5072864;28;20471;-66
2021/06/30 10:32:00;;;;;;;9.13;8.37;;;22.10;99.90;;;;;;5072517;28;20875;-66
2021/06/30 10:34:37;;;;;;;9.40;8.70;;;22.10;99.90;;;;;;5061591;28;20459;-66
2021/06/30 10:37:05;;;;;;;11.60;10.70;;;22.10;99.90;;;;;;5065595;28;20492;-66
2021/06/30 10:39:51;;;;;;;11.20;10.40;;;22.10;99.90;;;;;;5056725;28;20545;-66
2021/06/30 10:42:23;;;;;;;10.47;9.67;;;22.10;99.90;;;;;;5069046;28;20466;-66
2021/06/30 10:44:52;;;;;;;8.90;8.30;;;22.10;99.90;;;;;;5072469;28;20454;-66
2021/06/30 10:47:39;;;;;;;9.77;9.07;;;22.10;99.90;;;;;;5066120;28;20466;-66
2021/06/30 10:50:27;;;;;;;10.50;9.73;;;22.10;99.90;;;;;;5072556;28;20941;-66
2021/06/30 10:52:56;;;;;;;8.50;7.90;;;22.10;99.90;;;;;;5072730;28;20466;-66
2021/06/30 10:55:51;;;;;;;8.60;7.90;;;22.10;99.90;;;;;;5061465;28;20466;-66
2021/06/30 10:58:21;;;;;;;9.30;8.70;;;22.10;99.90;;;;;;5072176;28;20690;-66
2021/06/30 11:00:51;;;;;;;9.10;8.40;;;22.10;99.90;;;;;;5072304;28;20470;-66
2021/06/30 11:03:27;;;;;;;9.80;9.10;;;22.10;99.90;;;;;;5071749;28;20462;-66
2021/06/30 11:05:56;;;;;;;9.10;8.50;;;22.10;99.90;;;;;;5072819;28;20497;-66
2021/06/30 11:08:43;;;;;;;10.00;9.30;;;22.10;99.90;;;;;;5071849;28;20481;-66
2021/06/30 11:11:12;;;;;;;11.40;10.60;;;22.10;99.90;;;;;;5059408;28;20957;-66
2021/06/30 11:14:03;;;;;;;10.00;9.20;;;22.10;99.90;;;;;;5058969;28;20471;-66
2021/06/30 11:16:52;;;;;;;11.20;10.30;;;22.10;99.90;;;;;;5061608;28;20470;-66
2021/06/30 11:19:48;;;;;;;10.63;9.90;;;22.10;99.90;;;;;;5071634;28;20470;-66
2021/06/30 11:22:29;;;;;;;12.03;11.13;;;22.10;99.90;;;;;;5062449;28;20545;-66
2021/06/30 11:24:57;;;;;;;13.70;12.50;;;22.10;99.90;;;;;;5065643;28;20540;-66
2021/06/30 11:27:45;;;;;;;18.30;16.70;;;22.00;99.90;;;;;;5071767;28;20541;-66
2021/06/30 11:30:37;;;;;;;12.83;11.83;;;22.00;99.90;;;;;;5061122;28;20886;-66
2021/06/30 11:33:15;;;;;;;15.73;14.33;;;22.00;99.90;;;;;;5068887;28;20481;-66
2021/06/30 11:35:45;;;;;;;14.13;12.93;;;22.00;99.90;;;;;;5066097;28;20465;-66
2021/06/30 11:38:21;;;;;;;13.13;12.20;;;22.00;99.90;;;;;;5072024;28;20481;-66
2021/06/30 11:40:54;;;;;;;12.20;11.30;;;22.00;99.90;;;;;;5075844;28;21578;-67
2021/06/30 11:43:24;;;;;;;11.20;10.40;;;22.00;99.90;;;;;;5076015;28;20458;-66
2021/06/30 11:45:55;;;;;;;11.03;10.23;;;22.00;99.90;;;;;;5075775;28;20454;-65
2021/06/30 11:48:23;;;;;;;10.30;9.50;;;22.00;99.90;;;;;;5069433;28;20540;-64
2021/06/30 11:50:56;;;;;;;11.37;10.47;;;22.00;99.90;;;;;;5075361;28;20458;-64
2021/06/30 11:53:47;;;;;;;12.93;11.97;;;22.00;99.90;;;;;;5075799;28;20974;-65
2021/06/30 11:56:36;;;;;;;11.57;10.77;;;22.00;99.90;;;;;;5060647;28;20489;-65
2021/06/30 11:59:05;;;;;;;12.90;11.90;;;21.90;99.90;;;;;;5060060;28;20470;-65
2021/06/30 12:01:37;;;;;;;11.40;10.50;;;21.90;99.90;;;;;;5069623;28;20470;-65
2021/06/30 12:04:16;;;;;;;10.30;9.60;;;21.90;99.90;;;;;;5075804;28;20477;-65
2021/06/30 12:06:45;;;;;;;10.93;10.13;;;21.90;99.90;;;;;;5076016;28;20537;-66
2021/06/30 12:09:18;;;;;;;10.97;10.17;;;21.90;99.90;;;;;;5074929;28;20501;-66
2021/06/30 12:11:48;;;;;;;11.47;10.57;;;21.90;99.90;;;;;;5060402;28;20883;-66
2021/06/30 12:14:17;;;;;;;11.73;10.87;;;21.90;99.90;;;;;;5067091;28;20455;-65
2021/06/30 12:16:49;;;;;;;12.73;11.70;;;21.90;99.90;;;;;;5075453;28;20542;-66
2021/06/30 12:19:17;;;;;;;13.17;11.97;;;21.90;99.90;;;;;;5074762;28;20477;-66
2021/06/30 12:21:47;;;;;;;13.00;12.10;;;21.90;99.90;;;;;;5075562;28;20804;-66
2021/06/30 12:24:17;;;;;;;10.53;9.73;;;21.90;99.90;;;;;;5066565;28;20467;-66
2021/06/30 12:27:01;;;;;;;10.07;9.27;;;21.90;99.90;;;;;;5075344;28;20477;-66
2021/06/30 12:29:28;;;;;;;10.87;10.07;;;21.90;99.90;;;;;;5075420;28;20500;-66
2021/06/30 12:31:57;;;;;;;11.27;10.27;;;21.90;99.90;;;;;;5074879;28;20490;-66
2021/06/30 12:34:25;;;;;;;10.23;9.43;;;21.90;99.90;;;;;;5068803;28;20474;-66
2021/06/30 12:36:52;;;;;;;10.40;9.50;;;21.90;99.90;;;;;;5074683;28;20497;-66
2021/06/30 12:39:23;;;;;;;8.97;8.17;;;21.90;99.90;;;;;;5075151;28;20816;-66
2021/06/30 12:41:55;;;;;;;7.17;6.67;;;21.90;99.90;;;;;;5074472;28;20466;-66